Nyk Orpheus — 7JDN — position and weather

sailwx.info

Track history (hours):
 
Tides and Currents Weather Stations Pressure Air Temp Water Temp Dewpoint Dewpoint Depression Visibility Wind Speed Wind Dir Waves Ship Positions

Nyk Orpheus

Last reported at 2014-Dec-21 16:28 UTC. Time now 2014-Dec-21 16:37 UTC.
Position N 43°25' E 004°51'.

Length 336 m; draft 11.8 m.

Type: Other ship. MMSI: 432657000.

Date/timePositionNaut miles runAvg speedWind from/ knotsBaromVisibWave heightAir tempDewpointWater temp
2014-Dec-21 16:28N 43°25' E 004°51'0 0.0
2014-Dec-21 15:31N 43°25' E 004°51'0 0.0
2014-Dec-21 14:31N 43°25' E 004°51'0 0.0
2014-Dec-21 13:31N 43°25' E 004°51'0 0.0
2014-Dec-21 12:31N 43°25' E 004°51'0 0.0
2014-Dec-21 11:31N 43°25' E 004°51'0 0.0
2014-Dec-21 10:28N 43°25' E 004°51'0 0.0
2014-Dec-21 09:31N 43°25' E 004°51'0 0.0
2014-Dec-21 08:31N 43°25' E 004°51'0 0.0
2014-Dec-21 07:31N 43°25' E 004°51'0 0.0
2014-Dec-21 06:31N 43°25' E 004°51'0 0.0
2014-Dec-21 05:31N 43°25' E 004°51'0 0.0
2014-Dec-21 04:31N 43°25' E 004°51'0 0.0
2014-Dec-21 03:31N 43°25' E 004°51'0 0.0
2014-Dec-21 02:31N 43°25' E 004°51'0 0.0
2014-Dec-21 01:28N 43°25' E 004°51'0 0.0
2014-Dec-21 00:31N 43°25' E 004°51'0 0.0
2014-Dec-20 23:31N 43°25' E 004°51'0 0.0
2014-Dec-20 22:28N 43°25' E 004°51'0 0.0
2014-Dec-20 21:31N 43°25' E 004°51'3 2.6
2014-Dec-20 20:34N 43°24' E 004°54'8 8.3
2014-Dec-20 19:34N 43°17' E 005°01'10 9.8
2014-Dec-20 18:33N 43°08' E 005°07'1615.9
2014-Dec-20 17:32N 43°00' E 005°26'1717.9
2014-Dec-20 16:33N 42°54' E 005°48'1717.2
2014-Dec-20 15:33N 42°52' E 006°12'9 9.3
2014-Dec-20 14:33N 42°52' E 006°24'39 9.8
2014-Dec-20 10:31N 43°14' E 007°09'1010.8
2014-Dec-20 09:33N 43°20' E 007°21'1110.6
2014-Dec-20 08:28N 43°27' E 007°33'5011.9
2014-Dec-20 04:16N 43°60' E 008°26'811.6
2014-Dec-20 03:33N 44°07' E 008°32'1111.4
2014-Dec-20 02:33N 44°16' E 008°41'10 9.3
2014-Dec-20 01:32N 44°25' E 008°46'1 1.1
2014-Dec-20 00:27N 44°25' E 008°47'0 0.0
2014-Dec-19 23:15N 44°25' E 008°47'0 0.0
2014-Dec-19 22:33N 44°25' E 008°47'0 0.0
2014-Dec-19 21:15N 44°25' E 008°47'0 0.0
2014-Dec-19 20:33N 44°25' E 008°47'0 0.0
2014-Dec-19 19:27N 44°25' E 008°47'0 0.0
2014-Dec-19 18:27N 44°25' E 008°47'0 0.0
2014-Dec-19 17:33N 44°25' E 008°47'0 0.0
2014-Dec-19 16:33N 44°25' E 008°47'0 0.0
2014-Dec-19 15:33N 44°25' E 008°47'0 0.0
2014-Dec-19 14:33N 44°25' E 008°47'0 0.0
2014-Dec-19 13:30N 44°25' E 008°47'0 0.0
2014-Dec-19 12:33N 44°25' E 008°47'0 0.0
2014-Dec-19 11:33N 44°25' E 008°47'0 0.0
2014-Dec-19 10:33N 44°25' E 008°47'0 0.0
2014-Dec-19 09:33N 44°25' E 008°47'0 0.0
2014-Dec-19 08:27N 44°25' E 008°47'0 0.0
2014-Dec-19 07:30N 44°25' E 008°47'0 0.0
2014-Dec-19 06:33N 44°25' E 008°47'0 0.0
2014-Dec-19 05:33N 44°25' E 008°47'0 0.0
2014-Dec-19 04:24N 44°25' E 008°47'0 0.0
2014-Dec-19 03:30N 44°25' E 008°47'0 0.0
2014-Dec-19 02:33N 44°25' E 008°47'0 0.0
2014-Dec-19 01:33N 44°25' E 008°47'0 0.0
2014-Dec-19 00:33N 44°25' E 008°47'0 0.0
2014-Dec-18 23:33N 44°25' E 008°47'0 0.0
2014-Dec-18 22:33N 44°25' E 008°47'0 0.0
2014-Dec-18 21:18N 44°25' E 008°47'0 0.0
2014-Dec-18 20:09N 44°25' E 008°47'0 0.0
2014-Dec-18 19:33N 44°25' E 008°47'0 0.0
2014-Dec-18 18:27N 44°25' E 008°47'0 0.0
2014-Dec-18 17:18N 44°25' E 008°47'0 0.0
2014-Dec-18 16:33N 44°25' E 008°47'0 0.0
2014-Dec-18 15:33N 44°25' E 008°47'0 0.0
2014-Dec-18 14:33N 44°25' E 008°47'0 0.0
2014-Dec-18 13:33N 44°25' E 008°47'0 0.0
2014-Dec-18 12:33N 44°25' E 008°47'0 0.0
2014-Dec-18 11:33N 44°25' E 008°47'0 0.0
2014-Dec-18 10:27N 44°25' E 008°47'0 0.0
2014-Dec-18 09:33N 44°25' E 008°47'0 0.0
2014-Dec-18 08:18N 44°25' E 008°47'0 0.0
2014-Dec-18 07:27N 44°25' E 008°47'0 0.0
2014-Dec-18 06:33N 44°25' E 008°47'0 0.1
2014-Dec-18 05:33N 44°25' E 008°47'5 4.7
2014-Dec-18 04:33N 44°22' E 008°43'1211.8
2014-Dec-18 03:33N 44°12' E 008°51'1818.2
2014-Dec-18 02:33N 43°57' E 009°07'2019.6
2014-Dec-18 01:33N 43°40' E 009°20'2019.8
2014-Dec-18 00:33N 43°21' E 009°30'2020.0
2014-Dec-17 23:33N 43°03' E 009°39'2220.7
2014-Dec-17 22:29N 42°41' E 009°47'93718.6
2014-Dec-15 20:15N 33°54' E 026°13'  
Track history (hours):
 
Tides and Currents Weather Stations Pressure Air Temp Water Temp Dewpoint Dewpoint Depression Visibility Wind Speed Wind Dir Waves Ship Positions

Nyk Orpheus

Last reported at 2014-Dec-21 16:28 UTC. Time now 2014-Dec-21 16:37 UTC.
Position N 43°25' E 004°51'.

Length 336 m; draft 11.8 m.

Type: Other ship. MMSI: 432657000.

Date/timePositionNaut miles runAvg speedWind from/ knotsBaromVisibWave heightAir tempDewpointWater temp
2014-Dec-21 16:28N 43°25' E 004°51'0 0.0
2014-Dec-21 15:31N 43°25' E 004°51'0 0.0
2014-Dec-21 14:31N 43°25' E 004°51'0 0.0
2014-Dec-21 13:31N 43°25' E 004°51'0 0.0
2014-Dec-21 12:31N 43°25' E 004°51'0 0.0
2014-Dec-21 11:31N 43°25' E 004°51'0 0.0
2014-Dec-21 10:28N 43°25' E 004°51'0 0.0
2014-Dec-21 09:31N 43°25' E 004°51'0 0.0
2014-Dec-21 08:31N 43°25' E 004°51'0 0.0
2014-Dec-21 07:31N 43°25' E 004°51'0 0.0
2014-Dec-21 06:31N 43°25' E 004°51'0 0.0
2014-Dec-21 05:31N 43°25' E 004°51'0 0.0
2014-Dec-21 04:31N 43°25' E 004°51'0 0.0
2014-Dec-21 03:31N 43°25' E 004°51'0 0.0
2014-Dec-21 02:31N 43°25' E 004°51'0 0.0
2014-Dec-21 01:28N 43°25' E 004°51'0 0.0
2014-Dec-21 00:31N 43°25' E 004°51'0 0.0
2014-Dec-20 23:31N 43°25' E 004°51'0 0.0
2014-Dec-20 22:28N 43°25' E 004°51'0 0.0
2014-Dec-20 21:31N 43°25' E 004°51'3 2.6
2014-Dec-20 20:34N 43°24' E 004°54'8 8.3
2014-Dec-20 19:34N 43°17' E 005°01'10 9.8
2014-Dec-20 18:33N 43°08' E 005°07'1615.9
2014-Dec-20 17:32N 43°00' E 005°26'1717.9
2014-Dec-20 16:33N 42°54' E 005°48'1717.2
2014-Dec-20 15:33N 42°52' E 006°12'9 9.3
2014-Dec-20 14:33N 42°52' E 006°24'39 9.8
2014-Dec-20 10:31N 43°14' E 007°09'1010.8
2014-Dec-20 09:33N 43°20' E 007°21'1110.6
2014-Dec-20 08:28N 43°27' E 007°33'5011.9
2014-Dec-20 04:16N 43°60' E 008°26'811.6
2014-Dec-20 03:33N 44°07' E 008°32'1111.4
2014-Dec-20 02:33N 44°16' E 008°41'10 9.3
2014-Dec-20 01:32N 44°25' E 008°46'1 1.1
2014-Dec-20 00:27N 44°25' E 008°47'0 0.0
2014-Dec-19 23:15N 44°25' E 008°47'0 0.0
2014-Dec-19 22:33N 44°25' E 008°47'0 0.0
2014-Dec-19 21:15N 44°25' E 008°47'0 0.0
2014-Dec-19 20:33N 44°25' E 008°47'0 0.0
2014-Dec-19 19:27N 44°25' E 008°47'0 0.0
2014-Dec-19 18:27N 44°25' E 008°47'0 0.0
2014-Dec-19 17:33N 44°25' E 008°47'0 0.0
2014-Dec-19 16:33N 44°25' E 008°47'0 0.0
2014-Dec-19 15:33N 44°25' E 008°47'0 0.0
2014-Dec-19 14:33N 44°25' E 008°47'0 0.0
2014-Dec-19 13:30N 44°25' E 008°47'0 0.0
2014-Dec-19 12:33N 44°25' E 008°47'0 0.0
2014-Dec-19 11:33N 44°25' E 008°47'0 0.0
2014-Dec-19 10:33N 44°25' E 008°47'0 0.0
2014-Dec-19 09:33N 44°25' E 008°47'0 0.0
2014-Dec-19 08:27N 44°25' E 008°47'0 0.0
2014-Dec-19 07:30N 44°25' E 008°47'0 0.0
2014-Dec-19 06:33N 44°25' E 008°47'0 0.0
2014-Dec-19 05:33N 44°25' E 008°47'0 0.0
2014-Dec-19 04:24N 44°25' E 008°47'0 0.0
2014-Dec-19 03:30N 44°25' E 008°47'0 0.0
2014-Dec-19 02:33N 44°25' E 008°47'0 0.0
2014-Dec-19 01:33N 44°25' E 008°47'0 0.0
2014-Dec-19 00:33N 44°25' E 008°47'0 0.0
2014-Dec-18 23:33N 44°25' E 008°47'0 0.0
2014-Dec-18 22:33N 44°25' E 008°47'0 0.0
2014-Dec-18 21:18N 44°25' E 008°47'0 0.0
2014-Dec-18 20:09N 44°25' E 008°47'0 0.0
2014-Dec-18 19:33N 44°25' E 008°47'0 0.0
2014-Dec-18 18:27N 44°25' E 008°47'0 0.0
2014-Dec-18 17:18N 44°25' E 008°47'0 0.0
2014-Dec-18 16:33N 44°25' E 008°47'0 0.0
2014-Dec-18 15:33N 44°25' E 008°47'0 0.0
2014-Dec-18 14:33N 44°25' E 008°47'0 0.0
2014-Dec-18 13:33N 44°25' E 008°47'0 0.0
2014-Dec-18 12:33N 44°25' E 008°47'0 0.0
2014-Dec-18 11:33N 44°25' E 008°47'0 0.0
2014-Dec-18 10:27N 44°25' E 008°47'0 0.0
2014-Dec-18 09:33N 44°25' E 008°47'0 0.0
2014-Dec-18 08:18N 44°25' E 008°47'0 0.0
2014-Dec-18 07:27N 44°25' E 008°47'0 0.0
2014-Dec-18 06:33N 44°25' E 008°47'0 0.1
2014-Dec-18 05:33N 44°25' E 008°47'5 4.7
2014-Dec-18 04:33N 44°22' E 008°43'1211.8
2014-Dec-18 03:33N 44°12' E 008°51'1818.2
2014-Dec-18 02:33N 43°57' E 009°07'2019.6
2014-Dec-18 01:33N 43°40' E 009°20'2019.8
2014-Dec-18 00:33N 43°21' E 009°30'2020.0
2014-Dec-17 23:33N 43°03' E 009°39'2220.7
2014-Dec-17 22:29N 42°41' E 009°47'93718.6
2014-Dec-15 20:15N 33°54' E 026°13'  

Dump ship's entire track history